createdAt,value
2018-08-12T00:00:03.196Z,1.2
2018-08-12T00:00:15.731Z,1.2
2018-08-12T00:00:28.268Z,1.2
2018-08-12T00:00:40.801Z,1.2
2018-08-12T00:00:53.330Z,1.2
2018-08-12T00:01:05.900Z,1.2
2018-08-12T00:01:18.421Z,1.2
2018-08-12T00:01:30.951Z,1.2
2018-08-12T00:01:43.464Z,1.2
2018-08-12T00:01:55.982Z,1.2
2018-08-12T00:02:08.510Z,1.2
2018-08-12T00:02:21.005Z,1.2
2018-08-12T00:02:33.758Z,1.2
2018-08-12T00:02:46.282Z,1.2
2018-08-12T00:02:58.819Z,1.2
2018-08-12T00:03:11.567Z,1.2
2018-08-12T00:03:24.079Z,1.2
2018-08-12T00:03:36.624Z,1.2
2018-08-12T00:03:49.126Z,1.2
2018-08-12T00:04:01.641Z,1.2
2018-08-12T00:04:14.182Z,1.2
2018-08-12T00:04:26.859Z,1.2
2018-08-12T00:04:39.403Z,1.2
2018-08-12T00:04:51.923Z,1.2
2018-08-12T00:05:04.445Z,1.2
2018-08-12T00:05:16.965Z,1.2
2018-08-12T00:05:29.564Z,1.2
2018-08-12T00:05:42.087Z,1.2
2018-08-12T00:05:54.605Z,1.2
2018-08-12T00:06:07.117Z,1.2
2018-08-12T00:06:19.622Z,1.2
2018-08-12T00:06:32.147Z,1.2
2018-08-12T00:06:44.679Z,1.2
2018-08-12T00:06:57.203Z,1.2
2018-08-12T00:07:09.737Z,1.2
2018-08-12T00:07:22.255Z,1.2
2018-08-12T00:07:34.775Z,1.2
2018-08-12T00:07:47.286Z,1.2
2018-08-12T00:07:59.806Z,1.2
2018-08-12T00:08:12.588Z,1.2
2018-08-12T00:08:25.125Z,1.2
2018-08-12T00:08:37.642Z,1.2
2018-08-12T00:08:50.153Z,1.2
2018-08-12T00:09:02.674Z,1.2
2018-08-12T00:09:15.182Z,1.2
2018-08-12T00:09:27.691Z,1.2
2018-08-12T00:09:40.217Z,1.2
2018-08-12T00:09:52.747Z,1.26
2018-08-12T00:10:05.279Z,1.26
2018-08-12T00:10:17.802Z,1.26
2018-08-12T00:10:30.338Z,1.26
2018-08-12T00:10:42.880Z,1.26
2018-08-12T00:10:55.393Z,1.26
2018-08-12T00:11:07.907Z,1.26
2018-08-12T00:11:20.422Z,1.26
2018-08-12T00:11:32.951Z,1.26
2018-08-12T00:11:45.469Z,1.26
2018-08-12T00:11:58.007Z,1.26
2018-08-12T00:12:10.535Z,1.26
2018-08-12T00:12:23.034Z,1.26
2018-08-12T00:12:35.554Z,1.26
2018-08-12T00:12:48.093Z,1.26
2018-08-12T00:13:00.635Z,1.26
2018-08-12T00:13:13.192Z,1.26
2018-08-12T00:13:25.735Z,1.26
2018-08-12T00:13:38.254Z,1.26
2018-08-12T00:13:50.795Z,1.26
2018-08-12T00:14:03.381Z,1.26
2018-08-12T00:14:15.914Z,1.26
2018-08-12T00:14:28.445Z,1.26
2018-08-12T00:14:40.960Z,1.26
2018-08-12T00:14:53.491Z,1.26
2018-08-12T00:15:06.192Z,1.26
2018-08-12T00:15:19.453Z,1.26
2018-08-12T00:15:32.432Z,1.26
2018-08-12T00:15:44.973Z,1.26
2018-08-12T00:15:57.549Z,1.26
2018-08-12T00:16:10.057Z,1.26
2018-08-12T00:16:22.587Z,1.26
2018-08-12T00:16:35.095Z,1.26
2018-08-12T00:16:47.636Z,1.26
2018-08-12T00:17:00.150Z,1.26
2018-08-12T00:17:12.673Z,1.26
2018-08-12T00:17:25.206Z,1.26
2018-08-12T00:17:37.723Z,1.26
2018-08-12T00:17:50.261Z,1.26
2018-08-12T00:18:02.809Z,1.26
2018-08-12T00:18:15.373Z,1.26
2018-08-12T00:18:27.886Z,1.26
2018-08-12T00:18:40.401Z,1.26
2018-08-12T00:18:52.932Z,1.26
2018-08-12T00:19:05.462Z,1.26
2018-08-12T00:19:17.986Z,1.26
2018-08-12T00:19:30.508Z,1.26
2018-08-12T00:19:43.030Z,1.26
2018-08-12T00:19:55.711Z,1.35
2018-08-12T00:20:08.257Z,1.35
2018-08-12T00:20:20.767Z,1.35
2018-08-12T00:20:33.279Z,1.35
2018-08-12T00:20:45.823Z,1.35
2018-08-12T00:20:58.343Z,1.35
2018-08-12T00:21:10.900Z,1.35
2018-08-12T00:21:23.454Z,1.35
2018-08-12T00:21:35.964Z,1.35
2018-08-12T00:21:48.477Z,1.35
2018-08-12T00:22:00.994Z,1.35
2018-08-12T00:22:13.622Z,1.35
2018-08-12T00:22:26.164Z,1.35
2018-08-12T00:22:38.680Z,1.35
2018-08-12T00:22:51.184Z,1.35
2018-08-12T00:23:03.706Z,1.35
2018-08-12T00:23:16.225Z,1.35
2018-08-12T00:23:28.739Z,1.35
2018-08-12T00:23:41.439Z,1.35
2018-08-12T00:23:53.981Z,1.35
2018-08-12T00:24:06.485Z,1.35
2018-08-12T00:24:18.998Z,1.35
2018-08-12T00:24:31.511Z,1.35
2018-08-12T00:24:44.019Z,1.35
2018-08-12T00:24:56.528Z,1.35
2018-08-12T00:25:09.383Z,1.35
2018-08-12T00:25:21.896Z,1.35
2018-08-12T00:25:34.432Z,1.35
2018-08-12T00:25:46.945Z,1.35
2018-08-12T00:25:59.552Z,1.35
2018-08-12T00:26:12.174Z,1.35
2018-08-12T00:26:24.720Z,1.35
2018-08-12T00:26:37.240Z,1.35
2018-08-12T00:26:49.760Z,1.35
2018-08-12T00:27:02.277Z,1.35
2018-08-12T00:27:14.793Z,1.35
2018-08-12T00:27:27.305Z,1.35
2018-08-12T00:27:39.825Z,1.35
2018-08-12T00:27:52.340Z,1.35
2018-08-12T00:28:04.852Z,1.35
2018-08-12T00:28:17.425Z,1.35
2018-08-12T00:28:29.948Z,1.35
2018-08-12T00:28:42.481Z,1.35
2018-08-12T00:28:55.032Z,1.35
2018-08-12T00:29:07.563Z,1.35
2018-08-12T00:29:20.236Z,1.35
2018-08-12T00:29:32.769Z,1.35
2018-08-12T00:29:45.268Z,1.25
2018-08-12T00:29:57.942Z,1.25
2018-08-12T00:30:10.608Z,1.25
2018-08-12T00:30:23.181Z,1.25
2018-08-12T00:30:35.707Z,1.25
2018-08-12T00:30:48.230Z,1.25
2018-08-12T00:31:00.752Z,1.25
2018-08-12T00:31:13.332Z,1.25
2018-08-12T00:31:25.842Z,1.25
2018-08-12T00:31:38.358Z,1.25
2018-08-12T00:31:50.893Z,1.25
2018-08-12T00:32:03.443Z,1.25
2018-08-12T00:32:15.969Z,1.25
2018-08-12T00:32:28.494Z,1.25
2018-08-12T00:32:41.142Z,1.25
2018-08-12T00:32:53.675Z,1.25
2018-08-12T00:33:06.196Z,1.25
2018-08-12T00:33:18.725Z,1.25
2018-08-12T00:33:31.254Z,1.25
2018-08-12T00:33:43.762Z,1.25
2018-08-12T00:33:56.289Z,1.25
2018-08-12T00:34:08.807Z,1.25
2018-08-12T00:34:21.317Z,1.25
2018-08-12T00:34:33.866Z,1.25
2018-08-12T00:34:46.392Z,1.25
2018-08-12T00:34:58.911Z,1.25
2018-08-12T00:35:11.452Z,1.25
2018-08-12T00:35:23.992Z,1.25
2018-08-12T00:35:36.507Z,1.25
2018-08-12T00:35:49.013Z,1.25
2018-08-12T00:36:01.562Z,1.25
2018-08-12T00:36:14.084Z,1.25
2018-08-12T00:36:26.596Z,1.25
2018-08-12T00:36:39.190Z,1.25
2018-08-12T00:36:51.720Z,1.25
2018-08-12T00:37:04.236Z,1.25
2018-08-12T00:37:16.884Z,1.25
2018-08-12T00:37:29.426Z,1.25
2018-08-12T00:37:41.966Z,1.25
2018-08-12T00:37:54.519Z,1.25
2018-08-12T00:38:07.041Z,1.25
2018-08-12T00:38:19.567Z,1.25
2018-08-12T00:38:32.079Z,1.25
2018-08-12T00:38:44.591Z,1.25
2018-08-12T00:38:57.223Z,1.25
2018-08-12T00:39:09.764Z,1.25
2018-08-12T00:39:22.611Z,1.25
2018-08-12T00:39:35.155Z,1.25
2018-08-12T00:39:47.665Z,1.24
2018-08-12T00:40:00.183Z,1.24
2018-08-12T00:40:12.710Z,1.24
2018-08-12T00:40:25.259Z,1.24
2018-08-12T00:40:37.779Z,1.24
2018-08-12T00:40:50.316Z,1.24
2018-08-12T00:41:02.832Z,1.24
2018-08-12T00:41:15.358Z,1.24
2018-08-12T00:41:27.878Z,1.24
2018-08-12T00:41:40.388Z,1.24
2018-08-12T00:41:52.915Z,1.24
2018-08-12T00:42:05.423Z,1.24
2018-08-12T00:42:17.966Z,1.24
2018-08-12T00:42:30.491Z,1.24
2018-08-12T00:42:43.020Z,1.24
2018-08-12T00:42:55.594Z,1.24
2018-08-12T00:43:08.159Z,1.24
2018-08-12T00:43:20.676Z,1.24
2018-08-12T00:43:33.192Z,1.24
2018-08-12T00:43:45.708Z,1.24
2018-08-12T00:43:58.223Z,1.24
2018-08-12T00:44:10.749Z,1.24
2018-08-12T00:44:23.288Z,1.24
2018-08-12T00:44:35.813Z,1.24
2018-08-12T00:44:48.333Z,1.24
2018-08-12T00:45:00.855Z,1.24
2018-08-12T00:45:13.376Z,1.24
2018-08-12T00:45:25.965Z,1.24
2018-08-12T00:45:38.526Z,1.24
2018-08-12T00:45:51.048Z,1.24
2018-08-12T00:46:03.555Z,1.24
2018-08-12T00:46:16.072Z,1.24
2018-08-12T00:46:28.582Z,1.24
2018-08-12T00:46:41.101Z,1.24
2018-08-12T00:46:53.611Z,1.24
2018-08-12T00:47:06.136Z,1.24
2018-08-12T00:47:18.664Z,1.24
2018-08-12T00:47:31.175Z,1.24
2018-08-12T00:47:43.695Z,1.24
2018-08-12T00:47:56.202Z,1.24
2018-08-12T00:48:08.737Z,1.24
2018-08-12T00:48:21.240Z,1.24
2018-08-12T00:48:33.757Z,1.24
2018-08-12T00:48:46.286Z,1.24
2018-08-12T00:48:58.928Z,1.24
2018-08-12T00:49:11.436Z,1.24
2018-08-12T00:49:23.949Z,1.24
2018-08-12T00:49:36.475Z,1.24
2018-08-12T00:49:48.998Z,1.28
2018-08-12T00:50:01.516Z,1.28
2018-08-12T00:50:14.040Z,1.28
2018-08-12T00:50:26.549Z,1.28
2018-08-12T00:50:39.074Z,1.28
2018-08-12T00:50:51.626Z,1.28
2018-08-12T00:51:04.160Z,1.28
2018-08-12T00:51:16.671Z,1.28
2018-08-12T00:51:29.194Z,1.28
2018-08-12T00:51:41.830Z,1.28
2018-08-12T00:51:54.346Z,1.28
2018-08-12T00:52:06.884Z,1.28
2018-08-12T00:52:19.411Z,1.28
2018-08-12T00:52:32.039Z,1.28
2018-08-12T00:52:44.567Z,1.28
2018-08-12T00:52:57.097Z,1.28
2018-08-12T00:53:09.605Z,1.28
2018-08-12T00:53:22.128Z,1.28
2018-08-12T00:53:34.652Z,1.28
2018-08-12T00:53:47.172Z,1.28
2018-08-12T00:53:59.729Z,1.28
2018-08-12T00:54:12.248Z,1.28
2018-08-12T00:54:24.769Z,1.28
2018-08-12T00:54:37.294Z,1.28
2018-08-12T00:54:49.804Z,1.28
2018-08-12T00:55:02.336Z,1.28
2018-08-12T00:55:14.844Z,1.28
2018-08-12T00:55:27.361Z,1.28
2018-08-12T00:55:39.864Z,1.28
2018-08-12T00:55:52.385Z,1.28
2018-08-12T00:56:04.925Z,1.28
2018-08-12T00:56:17.442Z,1.28
2018-08-12T00:56:29.964Z,1.28
2018-08-12T00:56:42.527Z,1.28
2018-08-12T00:56:55.043Z,1.28
2018-08-12T00:57:07.575Z,1.28
2018-08-12T00:57:20.306Z,1.28
2018-08-12T00:57:32.825Z,1.28
2018-08-12T00:57:45.506Z,1.28
2018-08-12T00:57:58.031Z,1.28
2018-08-12T00:58:10.551Z,1.28
2018-08-12T00:58:23.057Z,1.28
2018-08-12T00:58:35.606Z,1.28
2018-08-12T00:58:48.151Z,1.28
2018-08-12T00:59:00.691Z,1.28
2018-08-12T00:59:13.209Z,1.28
2018-08-12T00:59:25.748Z,1.28
2018-08-12T00:59:38.262Z,1.28
2018-08-12T00:59:50.766Z,1.11
2018-08-12T01:00:03.295Z,1.11
2018-08-12T01:00:15.863Z,1.11
2018-08-12T01:00:28.387Z,1.11
2018-08-12T01:00:40.892Z,1.11
2018-08-12T01:00:53.417Z,1.11
2018-08-12T01:01:05.946Z,1.11
2018-08-12T01:01:18.467Z,1.11
2018-08-12T01:01:30.967Z,1.11
2018-08-12T01:01:43.577Z,1.11
2018-08-12T01:01:56.090Z,1.11
2018-08-12T01:02:08.591Z,1.11
2018-08-12T01:02:21.122Z,1.11
2018-08-12T01:02:33.832Z,1.11
2018-08-12T01:02:46.351Z,1.11
2018-08-12T01:02:58.929Z,1.11
2018-08-12T01:03:11.451Z,1.11
2018-08-12T01:03:23.959Z,1.11
2018-08-12T01:03:36.469Z,1.11
2018-08-12T01:03:49.143Z,1.11
2018-08-12T01:04:01.652Z,1.11
2018-08-12T01:04:14.190Z,1.11
2018-08-12T01:04:26.862Z,1.11
2018-08-12T01:04:39.382Z,1.11
2018-08-12T01:04:51.895Z,1.11
2018-08-12T01:05:04.481Z,1.11
2018-08-12T01:05:16.998Z,1.11
2018-08-12T01:05:29.500Z,1.11
2018-08-12T01:05:42.058Z,1.11
2018-08-12T01:05:54.625Z,1.11
2018-08-12T01:06:07.115Z,1.11
2018-08-12T01:06:19.808Z,1.11
2018-08-12T01:06:32.370Z,1.11
2018-08-12T01:06:44.894Z,1.11
2018-08-12T01:06:57.405Z,1.11
2018-08-12T01:07:09.944Z,1.11
2018-08-12T01:07:22.452Z,1.11
2018-08-12T01:07:34.992Z,1.11
2018-08-12T01:07:47.565Z,1.11
2018-08-12T01:08:00.080Z,1.11
2018-08-12T01:08:12.619Z,1.11
2018-08-12T01:08:25.144Z,1.11
2018-08-12T01:08:37.659Z,1.11
2018-08-12T01:08:50.161Z,1.11
2018-08-12T01:09:02.693Z,1.11
2018-08-12T01:09:15.211Z,1.11
2018-08-12T01:09:27.762Z,1.11
2018-08-12T01:09:40.305Z,1.11
2018-08-12T01:09:52.816Z,1.11
2018-08-12T01:10:05.329Z,1.11
2018-08-12T01:10:17.859Z,1.11
2018-08-12T01:10:30.386Z,1.11
2018-08-12T01:10:42.917Z,1.11
2018-08-12T01:10:55.426Z,1.11
2018-08-12T01:11:07.943Z,1.11
2018-08-12T01:11:20.494Z,1.11
2018-08-12T01:11:33.011Z,1.11
2018-08-12T01:11:45.538Z,1.11
2018-08-12T01:11:58.057Z,1.11
2018-08-12T01:12:10.628Z,1.11
2018-08-12T01:12:23.154Z,1.11
2018-08-12T01:12:35.673Z,1.11
2018-08-12T01:12:48.375Z,1.11
2018-08-12T01:13:00.868Z,1.11
2018-08-12T01:13:13.379Z,1.11
2018-08-12T01:13:25.891Z,1.11
2018-08-12T01:13:38.456Z,1.11
2018-08-12T01:13:50.976Z,1.11
2018-08-12T01:14:03.540Z,1.11
2018-08-12T01:14:16.079Z,1.11
2018-08-12T01:14:28.595Z,1.11
2018-08-12T01:14:41.115Z,1.11
2018-08-12T01:14:53.634Z,1.11
2018-08-12T01:15:06.223Z,1.11
2018-08-12T01:15:18.756Z,1.11
2018-08-12T01:15:31.282Z,1.11
2018-08-12T01:15:43.813Z,1.11
2018-08-12T01:15:56.361Z,1.11
2018-08-12T01:16:08.879Z,1.11
2018-08-12T01:16:21.407Z,1.11
2018-08-12T01:16:33.937Z,1.11
2018-08-12T01:16:46.461Z,1.11
2018-08-12T01:16:58.983Z,1.11
2018-08-12T01:17:11.533Z,1.11
2018-08-12T01:17:24.068Z,1.11
2018-08-12T01:17:36.580Z,1.11
2018-08-12T01:17:49.091Z,1.11
2018-08-12T01:18:01.611Z,1.11
2018-08-12T01:18:14.129Z,1.11
2018-08-12T01:18:26.645Z,1.11
2018-08-12T01:18:39.183Z,1.11
2018-08-12T01:18:51.715Z,1.11
2018-08-12T01:19:04.282Z,1.11
2018-08-12T01:19:16.797Z,1.11
2018-08-12T01:19:29.306Z,1.11
2018-08-12T01:19:41.835Z,1.11
2018-08-12T01:19:54.374Z,1.2
2018-08-12T01:20:06.918Z,1.2
2018-08-12T01:20:19.443Z,1.2
2018-08-12T01:20:31.985Z,1.2
2018-08-12T01:20:44.508Z,1.2
2018-08-12T01:20:57.085Z,1.2
2018-08-12T01:21:09.620Z,1.2
2018-08-12T01:21:22.159Z,1.2
2018-08-12T01:21:34.691Z,1.2
2018-08-12T01:21:47.212Z,1.2
2018-08-12T01:21:59.750Z,1.2
2018-08-12T01:22:12.377Z,1.2
2018-08-12T01:22:24.910Z,1.2
2018-08-12T01:22:37.439Z,1.2
2018-08-12T01:22:49.966Z,1.2
2018-08-12T01:23:02.498Z,1.2
2018-08-12T01:23:15.038Z,1.2
2018-08-12T01:23:27.620Z,1.2
2018-08-12T01:23:40.370Z,1.2
2018-08-12T01:23:52.900Z,1.2
2018-08-12T01:24:05.471Z,1.2
2018-08-12T01:24:18.073Z,1.2
2018-08-12T01:24:30.589Z,1.2
2018-08-12T01:24:43.112Z,1.2
2018-08-12T01:24:55.649Z,1.2
2018-08-12T01:25:08.174Z,1.2
2018-08-12T01:25:20.730Z,1.2
2018-08-12T01:25:33.236Z,1.2
2018-08-12T01:25:46.048Z,1.2
2018-08-12T01:25:58.580Z,1.2
2018-08-12T01:26:11.103Z,1.2
2018-08-12T01:26:23.595Z,1.2
2018-08-12T01:26:36.109Z,1.2
2018-08-12T01:26:48.617Z,1.2
2018-08-12T01:27:01.131Z,1.2
2018-08-12T01:27:13.648Z,1.2
2018-08-12T01:27:26.177Z,1.2
2018-08-12T01:27:38.700Z,1.2
2018-08-12T01:27:51.225Z,1.2
2018-08-12T01:28:03.734Z,1.2
2018-08-12T01:28:16.247Z,1.2
2018-08-12T01:28:28.809Z,1.2
2018-08-12T01:28:41.347Z,1.2
2018-08-12T01:28:53.873Z,1.2
2018-08-12T01:29:06.409Z,1.2
2018-08-12T01:29:18.914Z,1.2
2018-08-12T01:29:31.451Z,1.2
2018-08-12T01:29:43.974Z,1.2
2018-08-12T01:29:56.498Z,1.56
2018-08-12T01:30:09.074Z,1.56
2018-08-12T01:30:21.609Z,1.56
2018-08-12T01:30:34.175Z,1.56
2018-08-12T01:30:46.682Z,1.56
2018-08-12T01:30:59.196Z,1.56
2018-08-12T01:31:11.968Z,1.56
2018-08-12T01:31:24.483Z,1.56
2018-08-12T01:31:36.995Z,1.56
2018-08-12T01:31:49.504Z,1.56
2018-08-12T01:32:02.027Z,1.56
2018-08-12T01:32:14.566Z,1.56
2018-08-12T01:32:27.071Z,1.56
2018-08-12T01:32:39.750Z,1.56
2018-08-12T01:32:52.272Z,1.56
2018-08-12T01:33:04.795Z,1.56
2018-08-12T01:33:17.341Z,1.56
2018-08-12T01:33:29.847Z,1.56
2018-08-12T01:33:42.359Z,1.56
2018-08-12T01:33:54.868Z,1.56
2018-08-12T01:34:07.384Z,1.56
2018-08-12T01:34:19.919Z,1.56
2018-08-12T01:34:32.461Z,1.56
2018-08-12T01:34:44.998Z,1.56
2018-08-12T01:34:57.519Z,1.56
2018-08-12T01:35:10.083Z,1.56
2018-08-12T01:35:22.642Z,1.56
2018-08-12T01:35:35.155Z,1.56
2018-08-12T01:35:47.881Z,1.56
2018-08-12T01:36:01.544Z,1.56
2018-08-12T01:36:14.528Z,1.56
2018-08-12T01:36:27.046Z,1.56
2018-08-12T01:36:39.600Z,1.56
2018-08-12T01:36:52.118Z,1.56
2018-08-12T01:37:04.642Z,1.56
2018-08-12T01:37:17.257Z,1.56
2018-08-12T01:37:29.774Z,1.56
2018-08-12T01:37:42.340Z,1.56
2018-08-12T01:37:54.873Z,1.56
2018-08-12T01:38:07.406Z,1.56
2018-08-12T01:38:19.903Z,1.56
2018-08-12T01:38:32.416Z,1.56
2018-08-12T01:38:44.947Z,1.56
2018-08-12T01:38:57.473Z,1.56
2018-08-12T01:39:10.004Z,1.56
2018-08-12T01:39:22.669Z,1.56
2018-08-12T01:39:35.210Z,1.56
2018-08-12T01:39:47.727Z,1.56
2018-08-12T01:40:00.245Z,1.31
2018-08-12T01:40:12.770Z,1.31
2018-08-12T01:40:25.317Z,1.31
2018-08-12T01:40:37.833Z,1.31
2018-08-12T01:40:50.354Z,1.31
2018-08-12T01:41:02.880Z,1.31
2018-08-12T01:41:15.392Z,1.31
2018-08-12T01:41:27.942Z,1.31
2018-08-12T01:41:40.487Z,1.31
2018-08-12T01:41:52.995Z,1.31
2018-08-12T01:42:05.498Z,1.31
2018-08-12T01:42:18.005Z,1.31
2018-08-12T01:42:30.538Z,1.31
2018-08-12T01:42:43.070Z,1.31
2018-08-12T01:42:55.595Z,1.31
2018-08-12T01:43:08.117Z,1.31
2018-08-12T01:43:20.633Z,1.31
2018-08-12T01:43:33.206Z,1.31
2018-08-12T01:43:45.721Z,1.31
2018-08-12T01:43:58.237Z,1.31
2018-08-12T01:44:10.748Z,1.31
2018-08-12T01:44:23.285Z,1.31
2018-08-12T01:44:35.807Z,1.31
2018-08-12T01:44:48.332Z,1.31
2018-08-12T01:45:00.848Z,1.31
2018-08-12T01:45:13.368Z,1.31
2018-08-12T01:45:25.904Z,1.31
2018-08-12T01:45:38.466Z,1.31
2018-08-12T01:45:50.982Z,1.31
2018-08-12T01:46:03.540Z,1.31
2018-08-12T01:46:16.055Z,1.31
2018-08-12T01:46:28.569Z,1.31
2018-08-12T01:46:41.074Z,1.31
2018-08-12T01:46:53.616Z,1.31
2018-08-12T01:47:06.130Z,1.31
2018-08-12T01:47:18.648Z,1.31
2018-08-12T01:47:31.178Z,1.31
2018-08-12T01:47:43.740Z,1.31
2018-08-12T01:47:56.262Z,1.31
2018-08-12T01:48:08.786Z,1.31
2018-08-12T01:48:21.313Z,1.31
2018-08-12T01:48:33.843Z,1.31
2018-08-12T01:48:46.360Z,1.31
2018-08-12T01:48:59.035Z,1.31
2018-08-12T01:49:11.578Z,1.31
2018-08-12T01:49:24.235Z,1.31
2018-08-12T01:49:36.769Z,1.31
2018-08-12T01:49:49.294Z,1.31
2018-08-12T01:50:01.812Z,1.15
2018-08-12T01:50:14.351Z,1.15
2018-08-12T01:50:26.890Z,1.15
2018-08-12T01:50:39.426Z,1.15
2018-08-12T01:50:51.978Z,1.15
2018-08-12T01:51:04.489Z,1.15
2018-08-12T01:51:17.015Z,1.15
2018-08-12T01:51:29.548Z,1.15
2018-08-12T01:51:42.148Z,1.15
2018-08-12T01:51:54.661Z,1.15
2018-08-12T01:52:07.206Z,1.15
2018-08-12T01:52:19.716Z,1.15
2018-08-12T01:52:32.240Z,1.15
2018-08-12T01:52:44.748Z,1.15
2018-08-12T01:52:57.268Z,1.15
2018-08-12T01:53:09.870Z,1.15
2018-08-12T01:53:22.431Z,1.15
2018-08-12T01:53:34.960Z,1.15
2018-08-12T01:53:47.541Z,1.15
2018-08-12T01:54:00.047Z,1.15
2018-08-12T01:54:12.574Z,1.15
2018-08-12T01:54:25.102Z,1.15
2018-08-12T01:54:37.623Z,1.15
2018-08-12T01:54:50.114Z,1.15
2018-08-12T01:55:02.755Z,1.15
2018-08-12T01:55:15.306Z,1.15
2018-08-12T01:55:27.818Z,1.15
2018-08-12T01:55:40.345Z,1.15
2018-08-12T01:55:52.879Z,1.15
2018-08-12T01:56:05.407Z,1.15
2018-08-12T01:56:17.920Z,1.15
2018-08-12T01:56:30.429Z,1.15
2018-08-12T01:56:42.954Z,1.15
2018-08-12T01:56:55.473Z,1.15
2018-08-12T01:57:07.966Z,1.15
2018-08-12T01:57:20.483Z,1.15
2018-08-12T01:57:33.038Z,1.15
2018-08-12T01:57:45.559Z,1.15
2018-08-12T01:57:58.076Z,1.15
2018-08-12T01:58:10.604Z,1.15
2018-08-12T01:58:23.139Z,1.15
2018-08-12T01:58:35.712Z,1.15
2018-08-12T01:58:48.254Z,1.15
2018-08-12T01:59:00.792Z,1.15
2018-08-12T01:59:13.334Z,1.15
2018-08-12T01:59:25.843Z,1.15
2018-08-12T01:59:38.370Z,1.15
2018-08-12T01:59:50.888Z,1.15
2018-08-12T02:00:03.487Z,1.4
2018-08-12T02:00:16.047Z,1.4
2018-08-12T02:00:28.613Z,1.4
2018-08-12T02:00:41.153Z,1.4
2018-08-12T02:00:53.726Z,1.4
2018-08-12T02:01:06.307Z,1.4
2018-08-12T02:01:18.861Z,1.4
2018-08-12T02:01:31.395Z,1.4
2018-08-12T02:01:43.964Z,1.4
2018-08-12T02:01:56.496Z,1.4
2018-08-12T02:02:08.993Z,1.4
2018-08-12T02:02:21.511Z,1.4
2018-08-12T02:02:34.166Z,1.4
2018-08-12T02:02:46.710Z,1.4
2018-08-12T02:02:59.233Z,1.4
2018-08-12T02:03:11.757Z,1.4
2018-08-12T02:03:24.295Z,1.4
2018-08-12T02:03:36.844Z,1.4
2018-08-12T02:03:49.376Z,1.4
2018-08-12T02:04:01.979Z,1.4
2018-08-12T02:04:14.519Z,1.4
2018-08-12T02:04:27.134Z,1.4
2018-08-12T02:04:39.644Z,1.4
2018-08-12T02:04:52.173Z,1.4
2018-08-12T02:05:04.693Z,1.4
2018-08-12T02:05:17.238Z,1.4
2018-08-12T02:05:29.757Z,1.4
2018-08-12T02:05:42.279Z,1.4
2018-08-12T02:05:54.851Z,1.4
2018-08-12T02:06:07.427Z,1.4
2018-08-12T02:06:19.942Z,1.4
2018-08-12T02:06:32.468Z,1.4
2018-08-12T02:06:44.993Z,1.4
2018-08-12T02:06:57.555Z,1.4
2018-08-12T02:07:10.089Z,1.4
2018-08-12T02:07:22.602Z,1.4
2018-08-12T02:07:35.159Z,1.4
2018-08-12T02:07:47.695Z,1.4
2018-08-12T02:08:00.215Z,1.4
2018-08-12T02:08:12.730Z,1.4
2018-08-12T02:08:25.259Z,1.4
2018-08-12T02:08:37.793Z,1.4
2018-08-12T02:08:50.354Z,1.4
2018-08-12T02:09:02.884Z,1.4
2018-08-12T02:09:15.408Z,1.4
2018-08-12T02:09:28.020Z,1.4
2018-08-12T02:09:40.550Z,1.4
2018-08-12T02:09:53.072Z,1.4
2018-08-12T02:10:05.607Z,1.15
2018-08-12T02:10:18.132Z,1.15
2018-08-12T02:10:30.654Z,1.15
2018-08-12T02:10:43.292Z,1.15
2018-08-12T02:10:55.825Z,1.15
2018-08-12T02:11:08.359Z,1.15
2018-08-12T02:11:20.897Z,1.15
2018-08-12T02:11:33.415Z,1.15
2018-08-12T02:11:45.949Z,1.15
2018-08-12T02:11:58.480Z,1.15
2018-08-12T02:12:10.987Z,1.15
2018-08-12T02:12:23.528Z,1.15
2018-08-12T02:12:36.057Z,1.15
2018-08-12T02:12:48.714Z,1.15
2018-08-12T02:13:01.243Z,1.15
2018-08-12T02:13:13.770Z,1.15
2018-08-12T02:13:26.283Z,1.15
2018-08-12T02:13:38.853Z,1.15
2018-08-12T02:13:51.374Z,1.15
2018-08-12T02:14:03.923Z,1.15
2018-08-12T02:14:16.475Z,1.15
2018-08-12T02:14:29.037Z,1.15
2018-08-12T02:14:41.564Z,1.15
2018-08-12T02:14:54.108Z,1.15
2018-08-12T02:15:06.639Z,1.15
2018-08-12T02:15:19.189Z,1.15
2018-08-12T02:15:31.711Z,1.15
2018-08-12T02:15:44.259Z,1.15
2018-08-12T02:15:56.778Z,1.15
2018-08-12T02:16:09.323Z,1.15
2018-08-12T02:16:21.847Z,1.15
2018-08-12T02:16:34.379Z,1.15
2018-08-12T02:16:46.938Z,1.15
2018-08-12T02:16:59.556Z,1.15
2018-08-12T02:17:12.098Z,1.15
2018-08-12T02:17:24.609Z,1.15
2018-08-12T02:17:37.124Z,1.15
2018-08-12T02:17:49.681Z,1.15
2018-08-12T02:18:02.195Z,1.15
2018-08-12T02:18:14.717Z,1.15
2018-08-12T02:18:27.229Z,1.15
2018-08-12T02:18:39.801Z,1.15
2018-08-12T02:18:52.328Z,1.15
2018-08-12T02:19:04.829Z,1.15
2018-08-12T02:19:17.349Z,1.15
2018-08-12T02:19:29.921Z,1.15
2018-08-12T02:19:42.448Z,1.15
2018-08-12T02:19:54.991Z,1.35
2018-08-12T02:20:07.512Z,1.35
2018-08-12T02:20:20.075Z,1.35
2018-08-12T02:20:32.590Z,1.35
2018-08-12T02:20:45.090Z,1.35
2018-08-12T02:20:57.603Z,1.35
2018-08-12T02:21:10.130Z,1.35
2018-08-12T02:21:22.659Z,1.35
2018-08-12T02:21:35.182Z,1.35
2018-08-12T02:21:47.720Z,1.35
2018-08-12T02:22:00.239Z,1.35
2018-08-12T02:22:12.893Z,1.35
2018-08-12T02:22:25.398Z,1.35
2018-08-12T02:22:37.975Z,1.35
2018-08-12T02:22:50.501Z,1.35
2018-08-12T02:23:03.028Z,1.35
2018-08-12T02:23:15.552Z,1.35
2018-08-12T02:23:28.086Z,1.35
2018-08-12T02:23:40.744Z,1.35
2018-08-12T02:23:53.262Z,1.35
2018-08-12T02:24:05.804Z,1.35
2018-08-12T02:24:18.330Z,1.35
2018-08-12T02:24:30.842Z,1.35
2018-08-12T02:24:43.356Z,1.35
2018-08-12T02:24:55.872Z,1.35
2018-08-12T02:25:08.397Z,1.35
2018-08-12T02:25:20.948Z,1.35
2018-08-12T02:25:33.453Z,1.35
2018-08-12T02:25:45.970Z,1.35
2018-08-12T02:25:58.444Z,1.35
2018-08-12T02:26:10.870Z,1.35
2018-08-12T02:26:28.420Z,1.35
2018-08-12T02:26:40.933Z,1.35
2018-08-12T02:26:53.469Z,1.35
2018-08-12T02:27:05.969Z,1.35
2018-08-12T02:27:18.488Z,1.35
2018-08-12T02:27:31.001Z,1.35
2018-08-12T02:27:43.534Z,1.35
2018-08-12T02:27:56.093Z,1.35
2018-08-12T02:28:08.640Z,1.35
2018-08-12T02:28:21.164Z,1.35
2018-08-12T02:28:33.684Z,1.35
2018-08-12T02:28:46.193Z,1.35
2018-08-12T02:28:58.717Z,1.35
2018-08-12T02:29:11.237Z,1.35
2018-08-12T02:29:23.767Z,1.35
2018-08-12T02:29:36.287Z,1.35
2018-08-12T02:29:48.803Z,1.35
2018-08-12T02:30:01.362Z,1.5
2018-08-12T02:30:13.969Z,1.5
2018-08-12T02:30:26.549Z,1.5
2018-08-12T02:30:39.207Z,1.5
2018-08-12T02:30:51.781Z,1.5
2018-08-12T02:31:04.800Z,1.5
2018-08-12T02:31:17.369Z,1.5
2018-08-12T02:31:29.906Z,1.5
2018-08-12T02:31:42.454Z,1.5
2018-08-12T02:31:54.989Z,1.5
2018-08-12T02:32:07.527Z,1.5
2018-08-12T02:32:20.075Z,1.5
2018-08-12T02:32:32.698Z,1.5
2018-08-12T02:32:45.228Z,1.5
2018-08-12T02:32:57.820Z,1.5
2018-08-12T02:33:10.379Z,1.5
2018-08-12T02:33:22.923Z,1.5
2018-08-12T02:33:35.498Z,1.5
2018-08-12T02:33:48.045Z,1.5
2018-08-12T02:34:00.565Z,1.5
2018-08-12T02:34:13.111Z,1.5
2018-08-12T02:34:25.638Z,1.5
2018-08-12T02:34:38.175Z,1.5
2018-08-12T02:34:50.719Z,1.5
2018-08-12T02:35:03.260Z,1.5
2018-08-12T02:35:15.798Z,1.5
2018-08-12T02:35:28.368Z,1.5
2018-08-12T02:35:40.913Z,1.5
2018-08-12T02:35:53.446Z,1.5
2018-08-12T02:36:06.029Z,1.5
2018-08-12T02:36:18.574Z,1.5
2018-08-12T02:36:31.181Z,1.5
2018-08-12T02:36:43.763Z,1.5
2018-08-12T02:36:56.284Z,1.5
2018-08-12T02:37:08.821Z,1.5
2018-08-12T02:37:21.568Z,1.5
2018-08-12T02:37:34.143Z,1.5
2018-08-12T02:37:46.756Z,1.5
2018-08-12T02:37:59.291Z,1.5
2018-08-12T02:38:11.850Z,1.5
2018-08-12T02:38:24.400Z,1.5
2018-08-12T02:38:36.940Z,1.5
2018-08-12T02:38:49.477Z,1.5
2018-08-12T02:39:02.008Z,1.5
2018-08-12T02:39:14.586Z,1.5
2018-08-12T02:39:27.328Z,1.5
2018-08-12T02:39:39.864Z,1.5
2018-08-12T02:39:52.421Z,1.5
2018-08-12T02:40:04.970Z,1.31
2018-08-12T02:40:17.545Z,1.31
2018-08-12T02:40:30.083Z,1.31
2018-08-12T02:40:42.634Z,1.31
2018-08-12T02:40:55.180Z,1.31
2018-08-12T02:41:07.746Z,1.31
2018-08-12T02:41:20.322Z,1.31
2018-08-12T02:41:32.963Z,1.31
2018-08-12T02:41:45.544Z,1.31
2018-08-12T02:41:58.090Z,1.31
2018-08-12T02:42:10.655Z,1.31
2018-08-12T02:42:23.199Z,1.31
2018-08-12T02:42:35.756Z,1.31
2018-08-12T02:42:48.345Z,1.31
2018-08-12T02:43:00.918Z,1.31
2018-08-12T02:43:13.445Z,1.31
2018-08-12T02:43:25.999Z,1.31
2018-08-12T02:43:38.556Z,1.31
2018-08-12T02:43:51.158Z,1.31
2018-08-12T02:44:03.694Z,1.31
2018-08-12T02:44:16.251Z,1.31
2018-08-12T02:44:28.797Z,1.31
2018-08-12T02:44:41.386Z,1.31
2018-08-12T02:44:53.943Z,1.31
2018-08-12T02:45:06.503Z,1.31
2018-08-12T02:45:19.082Z,1.31
2018-08-12T02:45:31.646Z,1.31
2018-08-12T02:45:44.201Z,1.31
2018-08-12T02:45:56.729Z,1.31
2018-08-12T02:46:09.336Z,1.31
2018-08-12T02:46:21.947Z,1.31
2018-08-12T02:46:34.476Z,1.31
2018-08-12T02:46:47.113Z,1.31
2018-08-12T02:46:59.659Z,1.31
2018-08-12T02:47:12.199Z,1.31
2018-08-12T02:47:24.847Z,1.31
2018-08-12T02:47:37.407Z,1.31
2018-08-12T02:47:50.318Z,1.31
2018-08-12T02:48:02.865Z,1.31
2018-08-12T02:48:15.430Z,1.31